Aviation Digital Data Service (ADDS)

Output produced by METARs form (2353 UTC 28 September 2016)
found at http://aviationweather.gov/adds/metars/
 
METAR text: KSPB 282253Z AUTO 36011KT 10SM CLR 23/08 A2998 RMK AO2 SLP151 T02330083
Conditions at: KSPB (SCAPPOOSE , OR, US) observed 2253 UTC 28 September 2016
Temperature: 23.3°C (74°F)
Dewpoint: 8.3°C (47°F) [RH = 38%]
Pressure (altimeter): 29.98 inches Hg (1015.3 mb)
[Sea-level pressure: 1015.1 mb]
Winds: from the N (360 degrees) at 13 MPH (11 knots; 5.7 m/s)
Visibility: 10 or more miles (16+ km)
Ceiling: at least 12,000 feet AGL
Clouds: sky clear below 12,000 feet AGL
Weather: automated observation with no human augmentation;
there may or may not be significant weather present at this time